Observation data for Levelland on 01/12/2018      Previous  Date  Next       Current Mesonet Observations  Soil Data  Daily Summary Page  Observations in Plain Language
KLD1 120600Z 06003KT M03/M12 A3027 RMK A01 T10301123  RH  049%=      5-min Rain = 0
KLD1 120605Z 07003KT M03/M12 A3027 RMK A01 T10321123  RH  050%=      5-min Rain = 0
KLD1 120610Z 08003KT M03/M12 A3027 RMK A01 T10301120  RH  051%=      5-min Rain = 0
KLD1 120615Z 07003KT M03/M12 A3027 RMK A01 T10271121  RH  049%=      5-min Rain = 0
KLD1 120620Z 08002KT M03/M12 A3027 RMK A01 T10281122  RH  049%=      5-min Rain = 0
KLD1 120625Z 09002KT M03/M12 A3027 RMK A01 T10301121  RH  050%=      5-min Rain = 0
KLD1 120630Z 08002KT M03/M12 A3026 RMK A01 T10311121  RH  050%=      5-min Rain = 0
KLD1 120635Z 09002KT M03/M12 A3026 RMK A01 T10321121  RH  051%=      5-min Rain = 0
KLD1 120640Z 09002KT M03/M12 A3026 RMK A01 T10331121  RH  051%=      5-min Rain = 0
KLD1 120645Z 10002KT M03/M12 A3026 RMK A01 T10321120  RH  051%=      5-min Rain = 0
KLD1 120650Z 11002KT M03/M12 A3025 RMK A01 T10301119  RH  051%=      5-min Rain = 0
KLD1 120655Z 11002KT M03/M12 A3025 RMK A01 T10321124  RH  050%=      5-min Rain = 0
KLD1 120700Z 11002KT M03/M12 A3025 RMK A01 T10341123  RH  051%=      5-min Rain = 0
KLD1 120705Z 11002KT M04/M13 A3024 RMK A01 T10351125  RH  051%=      5-min Rain = 0
KLD1 120710Z 12002KT M04/M13 A3024 RMK A01 T10371126  RH  051%=      5-min Rain = 0
KLD1 120715Z 14002KT M04/M13 A3025 RMK A01 T10411126  RH  052%=      5-min Rain = 0
KLD1 120720Z 16002KT M04/M12 A3025 RMK A01 T10391123  RH  053%=      5-min Rain = 0
KLD1 120725Z 17002KT M04/M13 A3025 RMK A01 T10371125  RH  051%=      5-min Rain = 0
KLD1 120730Z 19002KT M04/M13 A3025 RMK A01 T10431128  RH  052%=      5-min Rain = 0
KLD1 120735Z 20002KT M05/M13 A3025 RMK A01 T10481127  RH  055%=      5-min Rain = 0
KLD1 120740Z 22002KT M06/M13 A3025 RMK A01 T10551126  RH  058%=      5-min Rain = 0
KLD1 120745Z 22003KT M06/M13 A3025 RMK A01 T10601129  RH  059%=      5-min Rain = 0
KLD1 120750Z 23003KT M07/M14 A3025 RMK A01 T10681138  RH  058%=      5-min Rain = 0
KLD1 120755Z 24003KT M07/M14 A3025 RMK A01 T10701135  RH  061%=      5-min Rain = 0
KLD1 120800Z 25003KT M07/M13 A3025 RMK A01 T10671128  RH  063%=      5-min Rain = 0
KLD1 120805Z 24003KT M07/M13 A3025 RMK A01 T10681128  RH  063%=      5-min Rain = 0
KLD1 120810Z 22003KT M07/M12 A3025 RMK A01 T10661120  RH  066%=      5-min Rain = 0
KLD1 120815Z 22003KT M07/M13 A3025 RMK A01 T10651129  RH  061%=      5-min Rain = 0
KLD1 120820Z 23003KT M07/M14 A3025 RMK A01 T10681136  RH  059%=      5-min Rain = 0
KLD1 120825Z 23004KT M07/M14 A3025 RMK A01 T10711139  RH  059%=      5-min Rain = 0
KLD1 120830Z 23004KT M07/M14 A3025 RMK A01 T10741137  RH  061%=      5-min Rain = 0
KLD1 120835Z 23005KT M08/M14 A3025 RMK A01 T10751138  RH  062%=      5-min Rain = 0
KLD1 120840Z 23006KT M08/M14 A3025 RMK A01 T10761136  RH  063%=      5-min Rain = 0
KLD1 120845Z 23005KT M08/M14 A3025 RMK A01 T10761135  RH  063%=      5-min Rain = 0
KLD1 120850Z 23005KT M08/M14 A3025 RMK A01 T10761136  RH  063%=      5-min Rain = 0
KLD1 120855Z 24005KT M08/M14 A3025 RMK A01 T10781137  RH  063%=      5-min Rain = 0
KLD1 120900Z 23005KT M08/M14 A3024 RMK A01 T10801137  RH  065%=      5-min Rain = 0
KLD1 120905Z 23006KT M08/M14 A3024 RMK A01 T10791137  RH  064%=      5-min Rain = 0
KLD1 120910Z 23006KT M07/M13 A3024 RMK A01 T10731134  RH  063%=      5-min Rain = 0
KLD1 120915Z 23005KT M07/M14 A3024 RMK A01 T10731138  RH  061%=      5-min Rain = 0
KLD1 120920Z 23004KT M08/M14 A3023 RMK A01 T10781141  RH  062%=      5-min Rain = 0
KLD1 120925Z 22005KT M08/M14 A3023 RMK A01 T10781135  RH  065%=      5-min Rain = 0
KLD1 120930Z 22006KT M07/M13 A3023 RMK A01 T10731134  RH  062%=      5-min Rain = 0
KLD1 120935Z 22005KT M08/M14 A3023 RMK A01 T10751138  RH  061%=      5-min Rain = 0
KLD1 120940Z 22004KT M08/M14 A3022 RMK A01 T10771135  RH  064%=      5-min Rain = 0
KLD1 120945Z 21004KT M08/M13 A3022 RMK A01 T10761133  RH  065%=      5-min Rain = 0
KLD1 120950Z 21003KT M07/M13 A3022 RMK A01 T10741131  RH  065%=      5-min Rain = 0
KLD1 120955Z 22003KT M08/M14 A3022 RMK A01 T10751136  RH  063%=      5-min Rain = 0
KLD1 121000Z 22005KT M07/M13 A3022 RMK A01 T10721130  RH  064%=      5-min Rain = 0
KLD1 121005Z 22006KT M06/M13 A3022 RMK A01 T10641125  RH  063%=      5-min Rain = 0
KLD1 121010Z 22006KT M06/M12 A3022 RMK A01 T10571124  RH  060%=      5-min Rain = 0
KLD1 121015Z 22007KT M05/M12 A3022 RMK A01 T10541123  RH  059%=      5-min Rain = 0
KLD1 121020Z 22007KT M05/M12 A3021 RMK A01 T10511124  RH  058%=      5-min Rain = 0
KLD1 121025Z 22007KT M05/M13 A3021 RMK A01 T10521125  RH  057%=      5-min Rain = 0
KLD1 121030Z 23007KT M05/M13 A3022 RMK A01 T10531126  RH  057%=      5-min Rain = 0
KLD1 121035Z 23008KT M05/M13 A3021 RMK A01 T10531126  RH  057%=      5-min Rain = 0
KLD1 121040Z 23006KT M05/M13 A3021 RMK A01 T10531127  RH  057%=      5-min Rain = 0
KLD1 121045Z 22006KT M06/M13 A3021 RMK A01 T10551129  RH  057%=      5-min Rain = 0
KLD1 121050Z 22007KT M06/M13 A3021 RMK A01 T10571129  RH  058%=      5-min Rain = 0
KLD1 121055Z 22007KT M06/M13 A3021 RMK A01 T10581129  RH  058%=      5-min Rain = 0
KLD1 121100Z 22007KT M06/M13 A3021 RMK A01 T10581129  RH  058%=      5-min Rain = 0
KLD1 121105Z 23006KT M06/M13 A3021 RMK A01 T10591128  RH  059%=      5-min Rain = 0
KLD1 121110Z 22006KT M06/M13 A3021 RMK A01 T10571127  RH  058%=      5-min Rain = 0
KLD1 121115Z 22006KT M06/M13 A3021 RMK A01 T10561128  RH  058%=      5-min Rain = 0
KLD1 121120Z 22006KT M06/M13 A3021 RMK A01 T10581129  RH  058%=      5-min Rain = 0
KLD1 121125Z 22006KT M06/M13 A3021 RMK A01 T10591129  RH  059%=      5-min Rain = 0
KLD1 121130Z 22006KT M06/M13 A3021 RMK A01 T10601128  RH  059%=      5-min Rain = 0
KLD1 121135Z 22005KT M06/M13 A3021 RMK A01 T10601128  RH  059%=      5-min Rain = 0
KLD1 121140Z 22005KT M06/M13 A3021 RMK A01 T10591128  RH  059%=      5-min Rain = 0
KLD1 121145Z 21004KT M06/M13 A3021 RMK A01 T10601129  RH  059%=      5-min Rain = 0
KLD1 121150Z 21003KT M06/M13 A3021 RMK A01 T10601128  RH  060%=      5-min Rain = 0
KLD1 121155Z 20003KT M06/M13 A302 RMK A01 T10591127  RH  060%=      5-min Rain = 0
KLD1 121200Z 20003KT M06/M14 A302 RMK A01 T10621135  RH  057%=      5-min Rain = 0
KLD1 121205Z 20003KT M07/M14 A302 RMK A01 T10681135  RH  060%=      5-min Rain = 0
KLD1 121210Z 20003KT M07/M13 A302 RMK A01 T10701132  RH  062%=      5-min Rain = 0
KLD1 121215Z 19004KT M07/M13 A302 RMK A01 T10671129  RH  062%=      5-min Rain = 0
KLD1 121220Z 19005KT M07/M13 A302 RMK A01 T10651131  RH  061%=      5-min Rain = 0
KLD1 121225Z 20005KT M07/M13 A302 RMK A01 T10661131  RH  060%=      5-min Rain = 0
KLD1 121230Z 20006KT M07/M13 A302 RMK A01 T10661131  RH  061%=      5-min Rain = 0
KLD1 121235Z 20006KT M07/M13 A302 RMK A01 T10651130  RH  061%=      5-min Rain = 0
KLD1 121240Z 20005KT M06/M13 A3021 RMK A01 T10641128  RH  061%=      5-min Rain = 0
KLD1 121245Z 20005KT M06/M13 A3021 RMK A01 T10621127  RH  061%=      5-min Rain = 0
KLD1 121250Z 20005KT M06/M13 A3021 RMK A01 T10611128  RH  060%=      5-min Rain = 0
KLD1 121255Z 20005KT M06/M13 A3021 RMK A01 T10631129  RH  060%=      5-min Rain = 0
KLD1 121300Z 20005KT M06/M13 A3021 RMK A01 T10631128  RH  061%=      5-min Rain = 0
KLD1 121305Z 19005KT M06/M13 A3021 RMK A01 T10611128  RH  060%=      5-min Rain = 0
KLD1 121310Z 19005KT M06/M13 A3021 RMK A01 T10611128  RH  060%=      5-min Rain = 0
KLD1 121315Z 18004KT M06/M13 A3021 RMK A01 T10621130  RH  060%=      5-min Rain = 0
KLD1 121320Z 18004KT M07/M13 A3021 RMK A01 T10661134  RH  060%=      5-min Rain = 0
KLD1 121325Z 18004KT M07/M13 A3022 RMK A01 T10691134  RH  061%=      5-min Rain = 0
KLD1 121330Z 18005KT M07/M13 A3022 RMK A01 T10701134  RH  061%=      5-min Rain = 0
KLD1 121335Z 18006KT M07/M13 A3022 RMK A01 T10711134  RH  062%=      5-min Rain = 0
KLD1 121340Z 17005KT M07/M13 A3022 RMK A01 T10731134  RH  063%=      5-min Rain = 0
KLD1 121345Z 16005KT M07/M13 A3022 RMK A01 T10721133  RH  063%=      5-min Rain = 0
KLD1 121350Z 14004KT M07/M14 A3022 RMK A01 T10731136  RH  062%=      5-min Rain = 0
KLD1 121355Z 14005KT M08/M14 A3022 RMK A01 T10771137  RH  063%=      5-min Rain = 0
KLD1 121400Z 14006KT M08/M13 A3022 RMK A01 T10751134  RH  063%=      5-min Rain = 0
KLD1 121405Z 14005KT M07/M13 A3022 RMK A01 T10701132  RH  062%=      5-min Rain = 0
KLD1 121410Z 14005KT M07/M13 A3022 RMK A01 T10671132  RH  061%=      5-min Rain = 0
KLD1 121415Z 14006KT M07/M13 A3022 RMK A01 T10651133  RH  059%=      5-min Rain = 0
KLD1 121420Z 15005KT M06/M13 A3022 RMK A01 T10621132  RH  058%=      5-min Rain = 0
KLD1 121425Z 16006KT M06/M13 A3022 RMK A01 T10591131  RH  058%=      5-min Rain = 0
KLD1 121430Z 15005KT M06/M13 A3022 RMK A01 T10571130  RH  057%=      5-min Rain = 0
KLD1 121435Z 16004KT M05/M13 A3022 RMK A01 T10531128  RH  056%=      5-min Rain = 0
KLD1 121440Z 16005KT M05/M13 A3022 RMK A01 T10481125  RH  056%=      5-min Rain = 0
KLD1 121445Z 15007KT M04/M12 A3022 RMK A01 T10421122  RH  054%=      5-min Rain = 0
KLD1 121450Z 16007KT M04/M12 A3022 RMK A01 T10361119  RH  054%=      5-min Rain = 0
KLD1 121455Z 16008KT M03/M12 A3022 RMK A01 T10321119  RH  052%=      5-min Rain = 0
KLD1 121500Z 16007KT M03/M12 A3022 RMK A01 T10301119  RH  051%=      5-min Rain = 0
KLD1 121505Z 16007KT M03/M12 A3023 RMK A01 T10271117  RH  051%=      5-min Rain = 0
KLD1 121510Z 17007KT M02/M11 A3023 RMK A01 T10211114  RH  050%=      5-min Rain = 0
KLD1 121515Z 17008KT M02/M11 A3023 RMK A01 T10161110  RH  049%=      5-min Rain = 0
KLD1 121520Z 17009KT M01/M11 A3023 RMK A01 T10121108  RH  049%=      5-min Rain = 0
KLD1 121525Z 17009KT M01/M11 A3023 RMK A01 T10091108  RH  048%=      5-min Rain = 0
KLD1 121530Z 17009KT M01/M11 A3023 RMK A01 T10081106  RH  048%=      5-min Rain = 0
KLD1 121535Z 17009KT M00/M11 A3024 RMK A01 T10041105  RH  047%=      5-min Rain = 0
KLD1 121540Z 17010KT M00/M11 A3024 RMK A01 T10031106  RH  046%=      5-min Rain = 0
KLD1 121545Z 17009KT M00/M11 A3024 RMK A01 T10011105  RH  046%=      5-min Rain = 0
KLD1 121550Z 16012KT 00/M11 A3024 RMK A01 T00011105  RH  045%=      5-min Rain = 0
KLD1 121555Z 16012KT 00/M11 A3024 RMK A01 T00041105  RH  045%=      5-min Rain = 0
KLD1 121600Z 16011KT 01/M10 A3024 RMK A01 T00071104  RH  044%=      5-min Rain = 0
KLD1 121605Z 16014KT 01/M11 A3023 RMK A01 T00101105  RH  042%=      5-min Rain = 0
KLD1 121610Z 16012KT 01/M11 A3024 RMK A01 T00131105  RH  042%=      5-min Rain = 0
KLD1 121615Z 17011KT 02/M11 A3024 RMK A01 T00161107  RH  040%=      5-min Rain = 0
KLD1 121620Z 17012KT 02/M11 A3024 RMK A01 T00191107  RH  039%=      5-min Rain = 0
KLD1 121625Z 17014KT 02/M11 A3024 RMK A01 T00211110  RH  038%=      5-min Rain = 0
KLD1 121630Z 17012KT 02/M11 A3024 RMK A01 T00211110  RH  038%=      5-min Rain = 0
KLD1 121635Z 17012G17KT 03/M11 A3024 RMK A01 T00251110  RH  037%=      5-min Rain = 0
KLD1 121640Z 17013KT 03/M11 A3024 RMK A01 T00301112  RH  035%=      5-min Rain = 0
KLD1 121645Z 17013G18KT 03/M11 A3023 RMK A01 T00331112  RH  034%=      5-min Rain = 0
KLD1 121650Z 18014KT 03/M12 A3023 RMK A01 T00321115  RH  033%=      5-min Rain = 0
KLD1 121655Z 17013KT 04/M12 A3022 RMK A01 T00351115  RH  033%=      5-min Rain = 0
KLD1 121700Z 18012KT 04/M12 A3022 RMK A01 T00371115  RH  032%=      5-min Rain = 0
KLD1 121705Z 17013G18KT 04/M12 A3022 RMK A01 T00391116  RH  032%=      5-min Rain = 0
KLD1 121710Z 18014G19KT 04/M12 A3022 RMK A01 T00411117  RH  031%=      5-min Rain = 0
KLD1 121715Z 18015G21KT 04/M12 A3022 RMK A01 T00411119  RH  031%=      5-min Rain = 0
KLD1 121720Z 17013G18KT 04/M12 A3021 RMK A01 T00391119  RH  031%=      5-min Rain = 0
KLD1 121725Z 17013G18KT 04/M12 A3021 RMK A01 T00431118  RH  030%=      5-min Rain = 0
KLD1 121730Z 18015G20KT 04/M12 A3021 RMK A01 T00431123  RH  029%=      5-min Rain = 0
KLD1 121735Z 18014KT 04/M12 A3021 RMK A01 T00441120  RH  030%=      5-min Rain = 0
KLD1 121740Z 18014KT 05/M12 A302 RMK A01 T00451120  RH  030%=      5-min Rain = 0
KLD1 121745Z 18014G20KT 05/M12 A302 RMK A01 T00511122  RH  028%=      5-min Rain = 0
KLD1 121750Z 19015G22KT 06/M12 A302 RMK A01 T00551123  RH  027%=      5-min Rain = 0
KLD1 121755Z 18016G21KT 06/M12 A3019 RMK A01 T00561123  RH  027%=      5-min Rain = 0
KLD1 121800Z 19017KT 06/M12 A3018 RMK A01 T00571124  RH  026%=      5-min Rain = 0
KLD1 121805Z 19018G24KT 06/M12 A3018 RMK A01 T00581123  RH  026%=      5-min Rain = 0
KLD1 121810Z 18015G20KT 06/M12 A3018 RMK A01 T00611121  RH  026%=      5-min Rain = 0
KLD1 121815Z 18017G24KT 06/M12 A3017 RMK A01 T00631121  RH  026%=      5-min Rain = 0
KLD1 121820Z 18018KT 06/M12 A3016 RMK A01 T00621122  RH  026%=      5-min Rain = 0
KLD1 121825Z 18018G23KT 06/M12 A3016 RMK A01 T00641122  RH  025%=      5-min Rain = 0
KLD1 121830Z 18016G21KT 07/M12 A3015 RMK A01 T00671120  RH  025%=      5-min Rain = 0
KLD1 121835Z 18016G21KT 07/M12 A3015 RMK A01 T00681120  RH  025%=      5-min Rain = 0
KLD1 121840Z 19013KT 07/M12 A3016 RMK A01 T00691119  RH  025%=      5-min Rain = 0
KLD1 121845Z 18013G18KT 07/M12 A3016 RMK A01 T00691117  RH  026%=      5-min Rain = 0
KLD1 121850Z 19013G18KT 07/M12 A3015 RMK A01 T00701115  RH  026%=      5-min Rain = 0
KLD1 121855Z 17013KT 07/M12 A3015 RMK A01 T00731115  RH  025%=      5-min Rain = 0
KLD1 121900Z 18012G18KT 07/M11 A3015 RMK A01 T00731113  RH  026%=      5-min Rain = 0
KLD1 121905Z 18013G18KT 08/M11 A3014 RMK A01 T00761112  RH  025%=      5-min Rain = 0
KLD1 121910Z 18013G18KT 08/M11 A3014 RMK A01 T00801110  RH  025%=      5-min Rain = 0
KLD1 121915Z 17012KT 08/M11 A3014 RMK A01 T00811109  RH  025%=      5-min Rain = 0
KLD1 121920Z 18014G19KT 08/M11 A3013 RMK A01 T00801109  RH  025%=      5-min Rain = 0
KLD1 121925Z 19013G18KT 08/M11 A3013 RMK A01 T00831108  RH  025%=      5-min Rain = 0
KLD1 121930Z 18012KT 08/M11 A3013 RMK A01 T00831108  RH  025%=      5-min Rain = 0
KLD1 121935Z 18013G18KT 08/M11 A3013 RMK A01 T00841108  RH  025%=      5-min Rain = 0
KLD1 121940Z 18015KT 08/M11 A3012 RMK A01 T00841107  RH  025%=      5-min Rain = 0
KLD1 121945Z 19014G19KT 09/M11 A3012 RMK A01 T00881106  RH  024%=      5-min Rain = 0
KLD1 121950Z 18012G17KT 09/M11 A3011 RMK A01 T00891106  RH  024%=      5-min Rain = 0
KLD1 121955Z 18011KT 09/M11 A3012 RMK A01 T00931105  RH  024%=      5-min Rain = 0
KLD1 122000Z 18013KT 10/M11 A3011 RMK A01 T00951105  RH  024%=      5-min Rain = 0
KLD1 122005Z 19013KT 10/M10 A301 RMK A01 T00971104  RH  023%=      5-min Rain = 0
KLD1 122010Z 19011KT 10/M10 A301 RMK A01 T01011104  RH  023%=      5-min Rain = 0
KLD1 122015Z 19012G19KT 10/M11 A301 RMK A01 T01021105  RH  023%=      5-min Rain = 0
KLD1 122020Z 17012G17KT 10/M11 A301 RMK A01 T01021105  RH  022%=      5-min Rain = 0
KLD1 122025Z 18011G17KT 10/M11 A301 RMK A01 T01041105  RH  022%=      5-min Rain = 0
KLD1 122030Z 18011KT 10/M11 A301 RMK A01 T01041106  RH  022%=      5-min Rain = 0
KLD1 122035Z 17010KT 11/M11 A301 RMK A01 T01061105  RH  022%=      5-min Rain = 0
KLD1 122040Z 16010KT 11/M11 A301 RMK A01 T01071106  RH  022%=      5-min Rain = 0
KLD1 122045Z 16012KT 11/M11 A301 RMK A01 T01081105  RH  022%=      5-min Rain = 0
KLD1 122050Z 17012KT 11/M11 A3009 RMK A01 T01071105  RH  022%=      5-min Rain = 0
KLD1 122055Z 17010KT 11/M10 A3009 RMK A01 T01101104  RH  021%=      5-min Rain = 0
KLD1 122100Z 17010G16KT 11/M10 A3009 RMK A01 T01141104  RH  021%=      5-min Rain = 0
KLD1 122105Z 17010KT 12/M10 A3009 RMK A01 T01151103  RH  021%=      5-min Rain = 0
KLD1 122110Z 18011KT 12/M10 A3009 RMK A01 T01171103  RH  021%=      5-min Rain = 0
KLD1 122115Z 16011G18KT 12/M10 A3009 RMK A01 T01161104  RH  021%=      5-min Rain = 0
KLD1 122120Z 18012KT 12/M10 A3008 RMK A01 T01181103  RH  021%=      5-min Rain = 0
KLD1 122125Z 17013KT 12/M10 A3008 RMK A01 T01181103  RH  021%=      5-min Rain = 0
KLD1 122130Z 17011G17KT 12/M10 A3008 RMK A01 T01191103  RH  020%=      5-min Rain = 0
KLD1 122135Z 17012KT 12/M10 A3008 RMK A01 T01191103  RH  020%=      5-min Rain = 0
KLD1 122140Z 17013KT 12/M10 A3008 RMK A01 T01191103  RH  020%=      5-min Rain = 0
KLD1 122145Z 16012G17KT 12/M10 A3008 RMK A01 T01211102  RH  020%=      5-min Rain = 0
KLD1 122150Z 15012KT 12/M10 A3008 RMK A01 T01191104  RH  020%=      5-min Rain = 0
KLD1 122155Z 16014KT 12/M10 A3008 RMK A01 T01201103  RH  020%=      5-min Rain = 0
KLD1 122200Z 16013G18KT 12/M10 A3008 RMK A01 T01191103  RH  020%=      5-min Rain = 0
KLD1 122205Z 16012G17KT 12/M10 A3008 RMK A01 T01181103  RH  021%=      5-min Rain = 0
KLD1 122210Z 16012KT 12/M10 A3008 RMK A01 T01191102  RH  021%=      5-min Rain = 0
KLD1 122215Z 15013KT 12/M10 A3008 RMK A01 T01191103  RH  020%=      5-min Rain = 0
KLD1 122220Z 15014KT 12/M10 A3008 RMK A01 T01171103  RH  021%=      5-min Rain = 0
KLD1 122225Z 15012G17KT 12/M10 A3008 RMK A01 T01171102  RH  021%=      5-min Rain = 0
KLD1 122230Z 16014KT 12/M10 A3008 RMK A01 T01151102  RH  021%=      5-min Rain = 0
KLD1 122235Z 15013KT 11/M10 A3008 RMK A01 T01141103  RH  021%=      5-min Rain = 0
KLD1 122240Z 15013G18KT 11/M10 A3008 RMK A01 T01141103  RH  021%=      5-min Rain = 0
KLD1 122245Z 15014KT 11/M10 A3009 RMK A01 T01121103  RH  021%=      5-min Rain = 0
KLD1 122250Z 15013KT 11/M10 A3009 RMK A01 T01111103  RH  021%=      5-min Rain = 0
KLD1 122255Z 15013KT 11/M10 A3009 RMK A01 T01101103  RH  022%=      5-min Rain = 0
KLD1 122300Z 15012KT 11/M10 A3009 RMK A01 T01091103  RH  022%=      5-min Rain = 0
KLD1 122305Z 15013KT 11/M10 A3009 RMK A01 T01071103  RH  022%=      5-min Rain = 0
KLD1 122310Z 15013KT 11/M10 A301 RMK A01 T01061103  RH  022%=      5-min Rain = 0
KLD1 122315Z 14013KT 10/M10 A301 RMK A01 T01021103  RH  023%=      5-min Rain = 0
KLD1 122320Z 14012KT 10/M10 A301 RMK A01 T01001103  RH  023%=      5-min Rain = 0
KLD1 122325Z 14011KT 10/M10 A301 RMK A01 T00971104  RH  023%=      5-min Rain = 0
KLD1 122330Z 15010KT 09/M10 A301 RMK A01 T00941104  RH  024%=      5-min Rain = 0
KLD1 122335Z 14009KT 09/M11 A3011 RMK A01 T00901105  RH  024%=      5-min Rain = 0
KLD1 122340Z 14010KT 09/M11 A3011 RMK A01 T00881105  RH  025%=      5-min Rain = 0
KLD1 122345Z 14010KT 09/M11 A3011 RMK A01 T00861105  RH  025%=      5-min Rain = 0
KLD1 122350Z 14009KT 09/M11 A3011 RMK A01 T00851105  RH  025%=      5-min Rain = 0
KLD1 122355Z 14009KT 08/M11 A3011 RMK A01 T00821105  RH  026%=      5-min Rain = 0
KLD1 130000Z 14008KT 08/M11 A3011 RMK A01 T00801106  RH  026%=      5-min Rain = 0
KLD1 130005Z 13008KT 08/M11 A3012 RMK A01 T00751108  RH  026%=      5-min Rain = 0
KLD1 130010Z 13007KT 07/M11 A3012 RMK A01 T00701109  RH  027%=      5-min Rain = 0
KLD1 130015Z 13008KT 07/M11 A3012 RMK A01 T00671109  RH  027%=      5-min Rain = 0
KLD1 130020Z 13008KT 07/M11 A3012 RMK A01 T00661109  RH  028%=      5-min Rain = 0
KLD1 130025Z 13008KT 07/M11 A3013 RMK A01 T00651109  RH  028%=      5-min Rain = 0
KLD1 130030Z 13009KT 06/M11 A3013 RMK A01 T00631109  RH  028%=      5-min Rain = 0
KLD1 130035Z 14008KT 06/M11 A3013 RMK A01 T00611109  RH  029%=      5-min Rain = 0
KLD1 130040Z 14008KT 06/M11 A3013 RMK A01 T00591110  RH  029%=      5-min Rain = 0
KLD1 130045Z 14008KT 06/M11 A3013 RMK A01 T00551111  RH  029%=      5-min Rain = 0
KLD1 130050Z 13008KT 05/M11 A3014 RMK A01 T00541112  RH  030%=      5-min Rain = 0
KLD1 130055Z 12007KT 05/M11 A3014 RMK A01 T00501113  RH  030%=      5-min Rain = 0
KLD1 130100Z 14008KT 05/M11 A3014 RMK A01 T00501112  RH  030%=      5-min Rain = 0
KLD1 130105Z 15009KT 05/M11 A3014 RMK A01 T00501112  RH  030%=      5-min Rain = 0
KLD1 130110Z 14009KT 05/M11 A3014 RMK A01 T00511111  RH  030%=      5-min Rain = 0
KLD1 130115Z 13008KT 05/M11 A3015 RMK A01 T00511112  RH  030%=      5-min Rain = 0
KLD1 130120Z 13007KT 05/M11 A3015 RMK A01 T00491113  RH  030%=      5-min Rain = 0
KLD1 130125Z 12007KT 05/M11 A3016 RMK A01 T00461113  RH  031%=      5-min Rain = 0
KLD1 130130Z 12008KT 04/M12 A3016 RMK A01 T00421115  RH  031%=      5-min Rain = 0
KLD1 130135Z 13008KT 04/M11 A3016 RMK A01 T00421114  RH  031%=      5-min Rain = 0
KLD1 130140Z 13007KT 04/M11 A3016 RMK A01 T00421114  RH  032%=      5-min Rain = 0
KLD1 130145Z 13007KT 04/M11 A3017 RMK A01 T00401114  RH  032%=      5-min Rain = 0
KLD1 130150Z 12007KT 04/M11 A3018 RMK A01 T00391114  RH  032%=      5-min Rain = 0
KLD1 130155Z 12007KT 04/M12 A3019 RMK A01 T00381115  RH  032%=      5-min Rain = 0
KLD1 130200Z 12007KT 04/M11 A3019 RMK A01 T00391114  RH  032%=      5-min Rain = 0
KLD1 130205Z 11007KT 04/M11 A3019 RMK A01 T00401113  RH  032%=      5-min Rain = 0
KLD1 130210Z 12007KT 04/M11 A3019 RMK A01 T00401113  RH  032%=      5-min Rain = 0
KLD1 130215Z 11008KT 04/M11 A302 RMK A01 T00421113  RH  032%=      5-min Rain = 0
KLD1 130220Z 11008KT 04/M11 A302 RMK A01 T00411114  RH  032%=      5-min Rain = 0
KLD1 130225Z 11009KT 04/M12 A3021 RMK A01 T00431116  RH  031%=      5-min Rain = 0
KLD1 130230Z 09010KT 04/M12 A3022 RMK A01 T00421118  RH  030%=      5-min Rain = 0
KLD1 130235Z 10010KT 04/M12 A3022 RMK A01 T00421121  RH  030%=      5-min Rain = 0
KLD1 130240Z 10009KT 04/M12 A3022 RMK A01 T00411123  RH  029%=      5-min Rain = 0
KLD1 130245Z 09012G17KT 04/M13 A3023 RMK A01 T00401125  RH  029%=      5-min Rain = 0
KLD1 130250Z 08012KT 04/M13 A3024 RMK A01 T00381126  RH  030%=      5-min Rain = 0
KLD1 130255Z 08013KT 04/M13 A3024 RMK A01 T00361127  RH  030%=      5-min Rain = 0
KLD1 130300Z 08013KT 03/M13 A3025 RMK A01 T00341127  RH  030%=      5-min Rain = 0
KLD1 130305Z 08015KT 03/M13 A3026 RMK A01 T00321129  RH  030%=      5-min Rain = 0
KLD1 130310Z 08013KT 03/M13 A3027 RMK A01 T00311129  RH  030%=      5-min Rain = 0
KLD1 130315Z 08013G19KT 03/M13 A3027 RMK A01 T00301130  RH  030%=      5-min Rain = 0
KLD1 130320Z 09016G22KT 03/M13 A3028 RMK A01 T00281131  RH  030%=      5-min Rain = 0
KLD1 130325Z 08014KT 03/M13 A3029 RMK A01 T00271131  RH  031%=      5-min Rain = 0
KLD1 130330Z 08013KT 03/M13 A3029 RMK A01 T00261131  RH  031%=      5-min Rain = 0
KLD1 130335Z 08012G18KT 03/M13 A303 RMK A01 T00251131  RH  031%=      5-min Rain = 0
KLD1 130340Z 08013G18KT 02/M13 A303 RMK A01 T00231132  RH  031%=      5-min Rain = 0
KLD1 130345Z 07013KT 02/M13 A303 RMK A01 T00211133  RH  031%=      5-min Rain = 0
KLD1 130350Z 08014KT 02/M13 A3031 RMK A01 T00201134  RH  031%=      5-min Rain = 0
KLD1 130355Z 08013KT 02/M14 A3031 RMK A01 T00181135  RH  032%=      5-min Rain = 0
KLD1 130400Z 08013KT 02/M14 A3031 RMK A01 T00161135  RH  032%=      5-min Rain = 0
KLD1 130405Z 08012KT 02/M14 A3031 RMK A01 T00151136  RH  032%=      5-min Rain = 0
KLD1 130410Z 08014KT 01/M14 A3032 RMK A01 T00141136  RH  032%=      5-min Rain = 0
KLD1 130415Z 09013KT 01/M14 A3032 RMK A01 T00121138  RH  032%=      5-min Rain = 0
KLD1 130420Z 09011KT 01/M14 A3032 RMK A01 T00101138  RH  033%=      5-min Rain = 0
KLD1 130425Z 08011KT 01/M14 A3032 RMK A01 T00081139  RH  033%=      5-min Rain = 0
KLD1 130430Z 08010KT 01/M14 A3033 RMK A01 T00081139  RH  033%=      5-min Rain = 0
KLD1 130435Z 08009KT 01/M14 A3033 RMK A01 T00071139  RH  033%=      5-min Rain = 0
KLD1 130440Z 06009KT 01/M14 A3034 RMK A01 T00061137  RH  034%=      5-min Rain = 0
KLD1 130445Z 07009KT 01/M14 A3034 RMK A01 T00071136  RH  034%=      5-min Rain = 0
KLD1 130450Z 08010KT 01/M14 A3034 RMK A01 T00081135  RH  034%=      5-min Rain = 0
KLD1 130455Z 07010KT 01/M14 A3034 RMK A01 T00081135  RH  034%=      5-min Rain = 0
KLD1 130500Z 07010KT 01/M14 A3035 RMK A01 T00081135  RH  034%=      5-min Rain = 0
KLD1 130505Z 07010KT 01/M14 A3035 RMK A01 T00071135  RH  034%=      5-min Rain = 0
KLD1 130510Z 07011KT 01/M14 A3036 RMK A01 T00061135  RH  034%=      5-min Rain = 0
KLD1 130515Z 07012KT 01/M14 A3036 RMK A01 T00061135  RH  034%=      5-min Rain = 0
KLD1 130520Z 07013KT 01/M14 A3037 RMK A01 T00051136  RH  034%=      5-min Rain = 0
KLD1 130525Z 07012KT 00/M14 A3037 RMK A01 T00041136  RH  035%=      5-min Rain = 0
KLD1 130530Z 07012KT 00/M14 A3038 RMK A01 T00041136  RH  035%=      5-min Rain = 0
KLD1 130535Z 08011KT 00/M14 A3037 RMK A01 T00031136  RH  035%=      5-min Rain = 0
KLD1 130540Z 08011KT 00/M14 A3037 RMK A01 T00021136  RH  035%=      5-min Rain = 0
KLD1 130545Z 08010KT 00/M14 A3038 RMK A01 T00011136  RH  035%=      5-min Rain = 0
KLD1 130550Z 07010KT 00/14 A3039 RMK A01 T00000-136  RH  036%=      5-min Rain = 0
KLD1 130555Z 08009KT 00/14 A3039 RMK A01 T00-00-136  RH  036%=      5-min Rain = 0

Page generated in 0.0104 seconds.